createdAt,value
2023-03-23T15:58:36.535Z,4.33
2023-03-23T16:01:11.831Z,3.07
2023-03-23T16:04:06.530Z,2.93
2023-03-23T16:06:34.851Z,3.40
2023-03-23T16:09:03.482Z,3.27
2023-03-23T16:11:31.726Z,2.60
2023-03-23T16:13:59.679Z,3.57
2023-03-23T16:16:29.887Z,6.47
2023-03-23T16:18:57.633Z,3.90
2023-03-23T16:21:25.557Z,3.50
2023-03-23T16:23:53.288Z,3.60
2023-03-23T16:26:21.135Z,16.00
2023-03-23T16:28:49.007Z,5.67
2023-03-23T16:31:17.317Z,3.80
2023-03-23T16:33:45.324Z,3.90
2023-03-23T16:36:13.377Z,4.23
2023-03-23T16:38:48.980Z,4.83
2023-03-23T16:41:18.918Z,3.40
2023-03-23T16:43:46.581Z,4.40
2023-03-23T16:46:14.388Z,2.93
2023-03-23T16:48:42.283Z,3.47
2023-03-23T16:51:10.018Z,3.43
2023-03-23T16:53:37.808Z,6.23
2023-03-23T16:56:06.022Z,10.40
2023-03-23T16:58:33.780Z,4.33
2023-03-23T17:01:01.543Z,4.27
2023-03-23T17:03:29.472Z,4.37
2023-03-23T17:05:59.333Z,3.83
2023-03-23T17:08:27.237Z,4.97
2023-03-23T17:10:54.921Z,2.97
2023-03-23T17:13:22.845Z,3.23
2023-03-23T17:15:52.864Z,3.53
2023-03-23T17:18:21.085Z,4.10
2023-03-23T17:20:48.948Z,3.80
2023-03-23T17:23:17.653Z,3.67
2023-03-23T17:25:46.859Z,4.97
2023-03-23T17:28:16.265Z,4.43
2023-03-23T17:30:44.831Z,4.10
2023-03-23T17:33:12.833Z,4.20
2023-03-23T17:35:40.586Z,5.03
2023-03-23T17:38:08.396Z,4.67
2023-03-23T17:40:36.096Z,11.33
2023-03-23T17:43:03.790Z,6.43
2023-03-23T17:45:31.564Z,5.20
2023-03-23T17:47:59.395Z,7.10
2023-03-23T17:50:27.305Z,6.63
2023-03-23T17:52:57.079Z,6.83
2023-03-23T17:55:24.956Z,6.73
2023-03-23T17:57:52.734Z,8.67
2023-03-23T18:00:20.914Z,9.90
2023-03-23T18:02:48.689Z,10.40
2023-03-23T18:05:16.578Z,11.20
2023-03-23T18:07:44.342Z,9.23
2023-03-23T18:10:13.123Z,7.47
2023-03-23T18:12:41.602Z,6.17
2023-03-23T18:15:09.847Z,5.93
2023-03-23T18:17:37.662Z,5.33
2023-03-23T18:20:06.455Z,9.80
2023-03-23T18:22:34.185Z,9.20
2023-03-23T18:25:02.840Z,8.07
2023-03-23T18:27:30.680Z,7.20
2023-03-23T18:29:58.615Z,19.33
2023-03-23T18:32:27.628Z,15.23
2023-03-23T18:34:56.058Z,13.17
2023-03-23T18:37:23.752Z,9.03
2023-03-23T18:39:53.630Z,15.07
2023-03-23T18:42:21.399Z,21.90
2023-03-23T18:44:49.279Z,29.40
2023-03-23T18:47:17.039Z,21.70
2023-03-23T18:49:47.391Z,24.53
2023-03-23T18:52:15.064Z,21.57
2023-03-23T18:54:45.257Z,16.43
2023-03-23T18:57:13.026Z,16.53
2023-03-23T18:59:40.772Z,15.67
2023-03-23T19:02:10.049Z,13.00
2023-03-23T19:04:38.143Z,10.60
2023-03-23T19:07:05.908Z,10.03
2023-03-23T19:09:34.780Z,8.93
2023-03-23T19:12:02.558Z,8.60
2023-03-23T19:14:30.445Z,8.63
2023-03-23T19:16:58.148Z,7.57
2023-03-23T19:19:27.039Z,7.33
2023-03-23T19:21:55.237Z,7.10
2023-03-23T19:24:23.026Z,8.67
2023-03-23T19:26:50.746Z,10.70
2023-03-23T19:29:26.806Z,14.03
2023-03-23T19:31:55.871Z,13.57
2023-03-23T19:34:24.483Z,11.80
2023-03-23T19:36:56.399Z,13.23
2023-03-23T19:39:32.178Z,11.90
2023-03-23T19:42:00.103Z,10.83
2023-03-23T19:44:28.855Z,14.53
2023-03-23T19:46:57.268Z,14.20
2023-03-23T19:49:25.502Z,15.07
2023-03-23T19:52:05.217Z,17.30
2023-03-23T19:54:38.897Z,15.13
2023-03-23T19:57:07.434Z,15.37
2023-03-23T19:59:36.304Z,21.77
2023-03-23T20:02:04.398Z,18.10
2023-03-23T20:04:32.284Z,13.23
2023-03-23T20:07:00.563Z,12.40
2023-03-23T20:09:28.720Z,12.43
2023-03-23T20:11:57.338Z,10.57
2023-03-23T20:14:25.781Z,8.77
2023-03-23T20:16:53.912Z,9.10
2023-03-23T20:19:22.021Z,9.63
2023-03-23T20:21:49.770Z,8.03
2023-03-23T20:24:17.666Z,7.90
2023-03-23T20:26:45.573Z,7.47
2023-03-23T20:29:13.276Z,7.93
2023-03-23T20:31:41.358Z,7.17
2023-03-23T20:34:11.755Z,7.40
2023-03-23T20:36:42.271Z,7.23
2023-03-23T20:39:19.001Z,6.67
2023-03-23T20:41:48.502Z,10.17
2023-03-23T20:44:17.091Z,6.93
2023-03-23T20:46:45.836Z,5.67
2023-03-23T20:49:13.924Z,5.77
2023-03-23T20:51:41.798Z,5.60
2023-03-23T20:54:10.218Z,5.27
2023-03-23T20:56:40.437Z,7.00
2023-03-23T20:59:08.908Z,5.33
2023-03-23T21:01:36.994Z,4.93
2023-03-23T21:04:04.744Z,5.70
2023-03-23T21:06:34.014Z,5.73
2023-03-23T21:09:01.866Z,4.70
2023-03-23T21:11:30.185Z,5.50
2023-03-23T21:13:57.886Z,4.63
2023-03-23T21:16:25.682Z,4.83
2023-03-23T21:18:53.916Z,4.53
2023-03-23T21:21:21.912Z,4.73
2023-03-23T21:23:52.772Z,4.50
2023-03-23T21:26:25.007Z,4.93
2023-03-23T21:28:54.083Z,6.53
2023-03-23T21:31:23.456Z,5.57
2023-03-23T21:33:51.383Z,6.27
2023-03-23T21:36:19.095Z,6.33
2023-03-23T21:38:50.119Z,6.50
2023-03-23T21:41:18.016Z,5.43
2023-03-23T21:43:50.068Z,6.30
2023-03-23T21:46:18.313Z,4.70
2023-03-23T21:48:51.397Z,5.03
2023-03-23T21:51:24.903Z,4.33
2023-03-23T21:53:55.861Z,5.13
2023-03-23T21:56:25.437Z,4.57
2023-03-23T21:58:53.211Z,5.97
2023-03-23T22:01:21.423Z,6.40
2023-03-23T22:03:49.314Z,4.70
2023-03-23T22:06:19.197Z,5.20
2023-03-23T22:08:47.139Z,4.47
2023-03-23T22:11:20.921Z,4.73
2023-03-23T22:13:52.187Z,4.37
2023-03-23T22:16:20.868Z,4.87
2023-03-23T22:18:49.153Z,3.57
2023-03-23T22:21:17.306Z,3.57
2023-03-23T22:23:45.548Z,3.57
2023-03-23T22:26:14.413Z,2.77
2023-03-23T22:28:42.940Z,2.33
2023-03-23T22:31:17.576Z,2.20
2023-03-23T22:33:46.192Z,2.00
2023-03-23T22:36:14.103Z,2.20
2023-03-23T22:38:43.454Z,2.37
2023-03-23T22:41:34.263Z,3.80
2023-03-23T22:44:02.051Z,3.40
2023-03-23T22:46:29.847Z,3.73
2023-03-23T22:48:57.981Z,3.03
2023-03-23T22:51:25.877Z,2.90
2023-03-23T22:53:53.588Z,2.47
2023-03-23T22:56:21.706Z,2.70
2023-03-23T22:58:49.449Z,2.73
2023-03-23T23:01:19.142Z,3.27
2023-03-23T23:03:46.941Z,2.97
2023-03-23T23:06:15.742Z,3.87
2023-03-23T23:08:43.772Z,3.33
2023-03-23T23:11:12.857Z,3.93
2023-03-23T23:13:41.313Z,2.73
2023-03-23T23:16:09.678Z,2.67
2023-03-23T23:18:37.643Z,3.47
2023-03-23T23:21:07.488Z,3.17
2023-03-23T23:23:36.115Z,3.20
2023-03-23T23:26:04.008Z,3.40
2023-03-23T23:28:31.793Z,3.57
2023-03-23T23:30:59.713Z,3.60
2023-03-23T23:33:27.760Z,3.73
2023-03-23T23:35:56.400Z,3.67
2023-03-23T23:38:24.479Z,3.90
2023-03-23T23:40:52.277Z,5.30
2023-03-23T23:43:20.050Z,4.43
2023-03-23T23:45:47.813Z,3.53
2023-03-23T23:48:15.683Z,4.17
2023-03-23T23:50:43.551Z,3.53
2023-03-23T23:53:12.982Z,4.30
2023-03-23T23:55:40.902Z,3.43
2023-03-23T23:58:08.649Z,3.53
